Time;durP1;ratioP1;P1;durP2;ratioP2;P2;SDS_P1;SDS_P2;PMS_P1;PMS_P2;Temp;Humidity;BMP_temperature;BMP_pressure;BME280_temperature;BME280_humidity;BME280_pressure;Samples;Min_cycle;Max_cycle;Signal;HPM_P1;HPM_P2
2022/09/03 00:00:11;;;;;;;1.95;0.80;;;13.60;69.90;;;;;;4896438;29;20358;-68
2022/09/03 00:02:44;;;;;;;1.67;0.90;;;13.60;69.90;;;;;;4897080;29;20048;-70
2022/09/03 00:05:23;;;;;;;1.00;0.82;;;13.60;69.90;;;;;;4915148;29;20046;-68
2022/09/03 00:08:12;;;;;;;2.83;0.90;;;13.50;70.30;;;;;;4914385;29;20028;-69
2022/09/03 00:11:12;;;;;;;1.60;0.80;;;13.50;70.30;;;;;;4911121;29;20107;-68
2022/09/03 00:13:46;;;;;;;1.98;1.00;;;13.50;70.30;;;;;;4913489;29;20036;-69
2022/09/03 00:16:16;;;;;;;2.00;1.10;;;13.50;70.30;;;;;;4911841;29;20071;-68
2022/09/03 00:18:49;;;;;;;1.00;0.90;;;13.50;70.30;;;;;;4912496;29;20040;-68
2022/09/03 00:21:24;;;;;;;0.98;0.80;;;13.40;70.40;;;;;;4914116;29;20313;-68
2022/09/03 00:23:51;;;;;;;4.53;0.90;;;13.30;70.90;;;;;;4913788;29;20043;-69
2022/09/03 00:26:28;;;;;;;1.75;1.05;;;13.30;71.20;;;;;;4905215;29;20024;-68
2022/09/03 00:29:08;;;;;;;1.63;0.88;;;13.20;71.50;;;;;;4905543;29;20332;-69
2022/09/03 00:31:42;;;;;;;3.50;1.35;;;13.10;71.50;;;;;;4909939;29;20063;-68
2022/09/03 00:34:24;;;;;;;3.10;1.10;;;13.20;71.60;;;;;;4911289;29;20032;-69
2022/09/03 00:36:49;;;;;;;1.80;1.15;;;13.20;71.70;;;;;;4912771;29;20139;-68
2022/09/03 00:39:17;;;;;;;3.13;1.05;;;13.20;71.50;;;;;;4910611;29;20524;-69
2022/09/03 00:41:46;;;;;;;2.92;1.17;;;13.20;71.70;;;;;;4912365;29;20028;-68
2022/09/03 00:44:49;;;;;;;4.28;0.98;;;13.20;71.60;;;;;;4909208;29;20074;-68
2022/09/03 00:47:40;;;;;;;1.52;0.88;;;13.00;71.60;;;;;;4907166;29;20025;-68
2022/09/03 00:50:21;;;;;;;1.63;0.98;;;13.10;72.00;;;;;;4910584;29;20043;-68
2022/09/03 00:52:59;;;;;;;1.58;0.70;;;13.10;71.70;;;;;;4905450;29;20066;-70
2022/09/03 00:55:55;;;;;;;2.53;0.70;;;13.20;71.50;;;;;;4908719;29;20020;-69
2022/09/03 00:58:30;;;;;;;1.63;1.05;;;13.10;71.80;;;;;;4913665;29;20028;-69
2022/09/03 01:00:55;;;;;;;3.05;0.77;;;13.10;71.80;;;;;;4911121;29;20439;-69
2022/09/03 01:03:50;;;;;;;1.50;0.80;;;13.10;71.90;;;;;;4911485;29;20119;-68
2022/09/03 01:06:30;;;;;;;1.08;0.80;;;13.00;72.20;;;;;;4913588;29;20025;-69
2022/09/03 01:09:01;;;;;;;2.37;0.87;;;13.00;72.40;;;;;;4910406;29;20028;-70
2022/09/03 01:11:48;;;;;;;2.25;0.95;;;12.90;72.50;;;;;;4912656;29;20036;-69
2022/09/03 01:14:42;;;;;;;1.95;1.00;;;13.00;72.60;;;;;;4911683;29;20123;-68
2022/09/03 01:17:45;;;;;;;4.75;1.23;;;12.90;72.50;;;;;;4915447;29;20024;-68
2022/09/03 01:20:28;;;;;;;1.10;0.80;;;12.90;72.80;;;;;;4905467;29;20036;-69
2022/09/03 01:22:57;;;;;;;2.17;0.95;;;13.00;72.40;;;;;;4914065;29;20076;-68
2022/09/03 01:25:44;;;;;;;1.75;0.77;;;13.00;72.80;;;;;;4902708;29;20076;-68
2022/09/03 01:28:20;;;;;;;3.53;1.02;;;13.00;72.50;;;;;;4897145;29;20344;-68
2022/09/03 01:31:15;;;;;;;3.00;0.90;;;13.00;72.40;;;;;;4915629;29;20024;-68
2022/09/03 01:33:55;;;;;;;2.38;0.93;;;12.90;72.40;;;;;;4877179;29;20052;-69
2022/09/03 01:36:31;;;;;;;1.30;0.80;;;12.90;72.80;;;;;;4912955;29;20020;-68
2022/09/03 01:39:01;;;;;;;1.95;1.20;;;12.90;72.80;;;;;;4909922;29;20028;-68
2022/09/03 01:44:43;;;;;;;1.83;0.70;;;12.80;73.10;;;;;;4916148;29;20050;-68
2022/09/03 01:47:16;;;;;;;1.88;0.90;;;12.80;73.20;;;;;;4903256;29;20107;-68
2022/09/03 01:50:01;;;;;;;2.00;0.90;;;12.70;73.30;;;;;;4914675;29;20054;-68
2022/09/03 01:52:53;;;;;;;1.23;0.80;;;12.70;73.30;;;;;;4905625;29;20234;-69
2022/09/03 01:55:50;;;;;;;1.38;0.70;;;12.70;73.40;;;;;;4912045;29;20031;-68
2022/09/03 01:58:23;;;;;;;1.42;0.88;;;12.80;73.30;;;;;;4909788;29;20312;-68
2022/09/03 02:00:58;;;;;;;0.80;0.65;;;12.80;73.00;;;;;;4913708;29;20511;-68
2022/09/03 02:03:32;;;;;;;3.33;0.82;;;12.70;73.20;;;;;;4906755;29;20030;-68
2022/09/03 02:05:58;;;;;;;2.40;0.90;;;12.70;73.20;;;;;;4913901;29;20377;-68
2022/09/03 02:08:23;;;;;;;1.95;0.80;;;12.60;73.40;;;;;;4900664;29;20028;-68
2022/09/03 02:10:58;;;;;;;3.05;0.90;;;12.70;73.40;;;;;;4905671;29;20028;-69
2022/09/03 02:13:44;;;;;;;2.88;1.20;;;12.60;73.50;;;;;;4912807;29;20067;-68
2022/09/03 02:16:14;;;;;;;2.05;0.88;;;12.60;73.70;;;;;;4918649;29;20024;-68
2022/09/03 02:18:44;;;;;;;2.13;0.90;;;12.60;73.70;;;;;;4904687;29;20119;-68
2022/09/03 02:21:13;;;;;;;4.35;0.90;;;12.50;73.70;;;;;;4911468;29;20028;-68
2022/09/03 02:23:40;;;;;;;2.97;0.80;;;12.60;73.70;;;;;;4906253;29;20448;-68
2022/09/03 02:26:08;;;;;;;1.98;1.23;;;12.50;74.00;;;;;;4908447;29;20028;-68
2022/09/03 02:28:34;;;;;;;1.42;0.80;;;12.40;74.10;;;;;;4911834;29;20357;-70
2022/09/03 02:31:00;;;;;;;2.58;1.00;;;12.50;73.90;;;;;;4913117;29;20032;-68
2022/09/03 02:33:26;;;;;;;1.17;0.95;;;12.50;74.00;;;;;;4911947;29;20123;-69
2022/09/03 02:35:52;;;;;;;1.48;0.93;;;12.50;74.10;;;;;;4907249;29;20356;-68
2022/09/03 02:38:21;;;;;;;0.88;0.80;;;12.50;74.10;;;;;;4909882;29;20036;-69
2022/09/03 02:40:47;;;;;;;1.48;0.82;;;12.40;74.40;;;;;;4907924;29;20038;-69
2022/09/03 02:43:29;;;;;;;1.48;1.00;;;12.40;74.50;;;;;;4908728;29;20032;-69
2022/09/03 02:46:00;;;;;;;1.77;0.85;;;12.30;74.60;;;;;;4904126;29;20123;-68
2022/09/03 02:48:27;;;;;;;3.60;1.08;;;12.30;74.80;;;;;;4904117;29;20032;-69
2022/09/03 02:50:52;;;;;;;1.35;0.90;;;12.40;74.50;;;;;;4906547;29;20040;-70
2022/09/03 02:53:18;;;;;;;1.50;0.80;;;12.40;74.40;;;;;;4909831;29;20032;-69
2022/09/03 02:55:44;;;;;;;1.38;0.90;;;12.30;74.50;;;;;;4911220;29;20452;-69
2022/09/03 02:58:10;;;;;;;4.60;1.00;;;12.30;74.70;;;;;;4909145;29;20032;-70
2022/09/03 03:00:36;;;;;;;3.08;0.80;;;12.30;74.70;;;;;;4907225;29;20104;-69
2022/09/03 03:03:03;;;;;;;1.27;0.88;;;12.20;75.00;;;;;;4910874;29;20427;-68
2022/09/03 03:05:47;;;;;;;1.65;0.80;;;12.10;75.20;;;;;;4917108;29;20028;-68
2022/09/03 03:08:19;;;;;;;1.33;0.73;;;12.00;75.50;;;;;;4917259;29;20034;-68
2022/09/03 03:10:48;;;;;;;1.45;0.80;;;12.00;75.90;;;;;;4917212;29;20495;-68
2022/09/03 03:13:15;;;;;;;1.85;0.90;;;12.00;75.90;;;;;;4917037;29;20043;-68
2022/09/03 03:15:41;;;;;;;2.38;0.98;;;12.00;75.90;;;;;;4917323;29;20417;-68
2022/09/03 03:18:06;;;;;;;1.58;0.77;;;11.90;76.00;;;;;;4916910;29;20020;-68
2022/09/03 03:20:33;;;;;;;0.90;0.70;;;11.80;76.40;;;;;;4914510;29;20040;-68
2022/09/03 03:23:02;;;;;;;2.85;0.90;;;11.80;76.60;;;;;;4917042;29;20031;-68
2022/09/03 03:25:27;;;;;;;2.00;1.10;;;11.70;76.70;;;;;;4916720;29;20103;-68
2022/09/03 03:27:56;;;;;;;1.15;0.80;;;11.70;76.90;;;;;;4917011;29;20456;-68
2022/09/03 03:30:22;;;;;;;2.10;1.08;;;11.70;76.80;;;;;;4917015;29;20036;-68
2022/09/03 03:32:48;;;;;;;1.15;1.00;;;11.80;76.60;;;;;;4911195;29;20345;-68
2022/09/03 03:35:13;;;;;;;2.20;0.95;;;11.70;76.90;;;;;;4897931;29;20020;-68
2022/09/03 03:37:39;;;;;;;2.53;1.20;;;11.70;76.70;;;;;;4898134;29;20355;-68
2022/09/03 03:40:06;;;;;;;3.25;0.80;;;11.70;76.90;;;;;;4895100;29;20032;-68
2022/09/03 03:42:33;;;;;;;1.98;1.40;;;11.70;76.70;;;;;;4897596;29;20028;-68
2022/09/03 03:45:01;;;;;;;2.33;1.10;;;11.70;76.90;;;;;;4896212;29;20529;-68
2022/09/03 03:47:27;;;;;;;2.67;1.00;;;11.70;76.80;;;;;;4895626;29;20032;-68
2022/09/03 03:49:53;;;;;;;6.20;1.30;;;11.70;76.80;;;;;;4897555;29;20043;-68
2022/09/03 03:52:18;;;;;;;3.45;1.00;;;11.60;76.90;;;;;;4897535;29;20484;-68
2022/09/03 03:54:44;;;;;;;2.30;1.10;;;11.60;77.40;;;;;;4897629;29;20152;-68
2022/09/03 03:57:10;;;;;;;1.98;0.90;;;11.50;77.50;;;;;;4897342;29;20032;-68
2022/09/03 03:59:35;;;;;;;1.98;1.17;;;11.60;77.40;;;;;;4897681;29;20041;-68
2022/09/03 04:02:00;;;;;;;3.28;0.98;;;11.50;77.40;;;;;;4907209;29;20039;-68
2022/09/03 04:04:26;;;;;;;2.25;1.00;;;11.50;77.60;;;;;;4916052;29;20024;-68
2022/09/03 04:06:51;;;;;;;3.13;1.13;;;11.40;77.80;;;;;;4901443;29;20024;-68
2022/09/03 04:09:17;;;;;;;2.45;1.10;;;11.50;77.70;;;;;;4897746;29;20039;-68
2022/09/03 04:11:42;;;;;;;3.10;1.10;;;11.40;77.80;;;;;;4900206;29;20492;-69
2022/09/03 04:14:08;;;;;;;3.15;0.88;;;11.50;77.60;;;;;;4914973;29;20043;-68
2022/09/03 04:16:33;;;;;;;2.08;1.00;;;11.60;77.20;;;;;;4913621;29;20043;-68
2022/09/03 04:18:59;;;;;;;5.93;1.13;;;11.50;77.50;;;;;;4906606;29;20035;-69
2022/09/03 04:21:27;;;;;;;1.75;1.10;;;11.50;77.40;;;;;;4906311;29;20024;-69
2022/09/03 04:23:53;;;;;;;1.58;1.00;;;11.50;77.50;;;;;;4915070;29;20050;-69
2022/09/03 04:26:21;;;;;;;1.48;0.93;;;11.50;78.00;;;;;;4909920;29;20023;-69
2022/09/03 04:28:47;;;;;;;2.50;1.20;;;11.40;77.60;;;;;;4911805;29;20083;-69
2022/09/03 04:31:15;;;;;;;1.30;0.90;;;11.40;77.80;;;;;;4910115;29;20405;-69
2022/09/03 04:33:41;;;;;;;1.23;1.13;;;11.40;77.90;;;;;;4910110;29;20044;-69
2022/09/03 04:36:21;;;;;;;3.30;0.90;;;11.30;78.10;;;;;;4896019;29;20036;-69
2022/09/03 04:38:48;;;;;;;3.78;1.50;;;11.30;78.10;;;;;;4904754;29;20084;-70
2022/09/03 04:41:19;;;;;;;1.27;0.85;;;11.30;78.30;;;;;;4911280;29;20024;-69
2022/09/03 04:43:47;;;;;;;2.65;1.08;;;11.30;77.90;;;;;;4901125;29;20166;-69
2022/09/03 04:46:14;;;;;;;2.80;0.90;;;11.30;78.00;;;;;;4903756;29;20107;-70
2022/09/03 04:48:39;;;;;;;1.92;0.93;;;11.30;78.20;;;;;;4905064;29;20061;-70
2022/09/03 04:51:08;;;;;;;3.55;1.23;;;11.30;78.20;;;;;;4906186;29;20059;-71
2022/09/03 04:53:37;;;;;;;4.63;1.38;;;11.30;78.20;;;;;;4901533;29;20044;-70
2022/09/03 04:56:14;;;;;;;2.72;0.98;;;11.30;78.30;;;;;;4912239;29;20428;-69
2022/09/03 04:58:42;;;;;;;1.98;1.05;;;11.30;78.30;;;;;;4896336;29;20096;-70
2022/09/03 05:01:10;;;;;;;2.90;1.05;;;11.30;78.20;;;;;;4901679;29;20055;-69
2022/09/03 05:03:36;;;;;;;2.65;1.20;;;11.40;78.10;;;;;;4905447;29;20514;-70
2022/09/03 05:06:02;;;;;;;2.92;1.15;;;11.40;78.00;;;;;;4908889;29;20028;-69
2022/09/03 05:08:27;;;;;;;2.47;1.23;;;11.40;77.90;;;;;;4905560;29;20058;-69
2022/09/03 05:10:59;;;;;;;1.83;1.08;;;11.40;77.90;;;;;;4904732;29;20132;-70
2022/09/03 05:13:27;;;;;;;2.38;1.00;;;11.40;77.90;;;;;;4907701;29;21837;-69
2022/09/03 05:15:57;;;;;;;1.98;1.08;;;11.40;78.00;;;;;;4907349;29;20020;-70
2022/09/03 05:18:23;;;;;;;1.50;0.90;;;11.50;78.00;;;;;;4899987;29;20042;-71
2022/09/03 05:20:58;;;;;;;1.63;1.05;;;11.50;77.70;;;;;;4906565;29;20415;-69
2022/09/03 05:23:23;;;;;;;0.90;0.80;;;11.60;77.20;;;;;;4908878;29;20033;-69
2022/09/03 05:26:01;;;;;;;2.95;1.58;;;11.60;77.30;;;;;;4914553;29;20034;-70
2022/09/03 05:28:29;;;;;;;3.30;1.00;;;11.70;76.90;;;;;;4904827;29;20034;-70
2022/09/03 05:30:59;;;;;;;2.60;1.00;;;11.80;76.80;;;;;;4916491;29;20048;-69
2022/09/03 05:33:25;;;;;;;2.00;1.00;;;11.80;76.90;;;;;;4914324;29;20028;-69
2022/09/03 05:35:52;;;;;;;4.65;1.00;;;11.90;76.90;;;;;;4898258;29;20075;-69
2022/09/03 05:38:18;;;;;;;2.28;1.20;;;12.00;76.00;;;;;;4914430;29;20031;-69
2022/09/03 05:40:43;;;;;;;1.55;0.80;;;12.00;76.30;;;;;;4894991;29;20405;-69
2022/09/03 05:43:09;;;;;;;2.83;0.93;;;12.10;76.00;;;;;;4908656;29;20413;-68
2022/09/03 05:45:35;;;;;;;1.77;1.02;;;12.20;75.20;;;;;;4897517;29;20032;-68
2022/09/03 05:48:01;;;;;;;2.10;1.10;;;12.30;75.30;;;;;;4900918;29;20087;-69
2022/09/03 05:50:26;;;;;;;3.13;1.20;;;12.30;75.20;;;;;;4913756;29;20031;-69
2022/09/03 05:52:52;;;;;;;1.67;0.98;;;12.40;74.60;;;;;;4909582;29;20044;-69
2022/09/03 05:55:18;;;;;;;3.35;1.00;;;12.40;75.00;;;;;;4911342;29;20035;-69
2022/09/03 05:57:44;;;;;;;2.75;0.90;;;12.50;74.20;;;;;;4912266;29;20221;-69
2022/09/03 06:00:10;;;;;;;1.48;0.90;;;12.60;74.50;;;;;;4909926;29;20144;-69
2022/09/03 06:02:36;;;;;;;3.72;0.98;;;12.60;74.70;;;;;;4913496;29;20413;-71
2022/09/03 06:05:01;;;;;;;3.28;1.20;;;12.70;73.70;;;;;;4904320;29;20143;-69
2022/09/03 06:07:27;;;;;;;1.52;0.90;;;12.70;74.00;;;;;;4910047;29;20480;-69
2022/09/03 06:09:53;;;;;;;2.75;0.93;;;12.80;74.00;;;;;;4910313;29;20028;-69
2022/09/03 06:12:18;;;;;;;3.83;1.10;;;12.90;73.90;;;;;;4906567;29;20031;-69
2022/09/03 06:14:44;;;;;;;3.17;1.10;;;12.90;73.60;;;;;;4907410;29;20362;-69
2022/09/03 06:17:11;;;;;;;2.05;0.90;;;13.00;73.30;;;;;;4900749;29;20040;-69
2022/09/03 06:19:37;;;;;;;2.60;0.90;;;13.00;73.50;;;;;;4910444;29;20356;-69
2022/09/03 06:22:03;;;;;;;1.80;0.80;;;13.10;72.80;;;;;;4909943;29;20032;-69
2022/09/03 06:24:28;;;;;;;1.65;1.10;;;13.20;72.80;;;;;;4907796;29;20091;-68
2022/09/03 06:26:55;;;;;;;2.67;1.05;;;13.30;72.10;;;;;;4914447;29;20032;-69
2022/09/03 06:29:20;;;;;;;1.75;1.00;;;13.40;72.60;;;;;;4910011;29;20027;-69
2022/09/03 06:31:47;;;;;;;1.60;1.20;;;13.50;71.90;;;;;;4909962;29;20031;-68
2022/09/03 06:34:13;;;;;;;1.67;1.00;;;13.60;71.70;;;;;;4909304;29;20044;-68
2022/09/03 06:36:40;;;;;;;4.35;1.20;;;13.70;71.00;;;;;;4908622;29;20376;-68
2022/09/03 06:39:05;;;;;;;3.95;1.25;;;13.80;71.20;;;;;;4911510;29;20076;-68
2022/09/03 06:41:32;;;;;;;3.25;1.10;;;13.80;70.90;;;;;;4910100;29;20037;-68
2022/09/03 06:44:03;;;;;;;2.47;0.98;;;14.00;70.60;;;;;;4897760;29;20064;-68
2022/09/03 06:46:30;;;;;;;2.60;1.00;;;14.00;70.60;;;;;;4909132;29;20032;-68
2022/09/03 06:48:56;;;;;;;1.92;0.90;;;14.10;70.80;;;;;;4913598;29;20084;-68
2022/09/03 06:51:25;;;;;;;3.67;1.10;;;14.20;70.30;;;;;;4917579;29;20032;-68
2022/09/03 06:53:53;;;;;;;2.83;1.05;;;14.40;69.20;;;;;;4915845;29;20453;-68
2022/09/03 06:56:25;;;;;;;2.20;1.00;;;14.50;69.00;;;;;;4917486;29;20039;-68
2022/09/03 06:58:52;;;;;;;2.20;0.93;;;14.60;68.80;;;;;;4917147;29;20044;-68
2022/09/03 07:01:19;;;;;;;4.82;1.10;;;14.60;68.30;;;;;;4912326;29;20024;-68
2022/09/03 07:03:47;;;;;;;1.63;0.90;;;14.80;68.40;;;;;;4905129;29;20038;-69
2022/09/03 07:06:18;;;;;;;2.05;1.05;;;14.90;68.10;;;;;;4898305;29;20016;-69
2022/09/03 07:08:47;;;;;;;4.72;1.00;;;14.90;67.30;;;;;;4897974;29;20047;-69
2022/09/03 07:11:16;;;;;;;2.83;1.23;;;15.00;66.50;;;;;;4907795;29;20048;-69
2022/09/03 07:13:44;;;;;;;3.13;1.33;;;15.00;67.00;;;;;;4914670;29;20038;-69
2022/09/03 07:16:12;;;;;;;2.40;0.95;;;15.10;66.90;;;;;;4916847;29;20031;-69
2022/09/03 07:18:38;;;;;;;3.55;1.05;;;15.20;67.10;;;;;;4909620;29;20387;-67
2022/09/03 07:21:09;;;;;;;1.52;0.90;;;15.30;66.50;;;;;;4905093;29;20028;-66
2022/09/03 07:23:36;;;;;;;2.65;0.82;;;15.30;66.00;;;;;;4907146;29;20032;-66
2022/09/03 07:26:04;;;;;;;3.53;1.10;;;15.30;65.90;;;;;;4916678;29;20047;-68
2022/09/03 07:28:33;;;;;;;2.58;1.20;;;15.30;66.10;;;;;;4911709;29;20134;-68
2022/09/03 07:31:11;;;;;;;3.30;0.98;;;15.50;65.30;;;;;;4914733;29;20366;-68
2022/09/03 07:33:37;;;;;;;3.90;1.25;;;15.60;64.90;;;;;;4914819;29;20508;-67
2022/09/03 07:36:06;;;;;;;5.60;1.17;;;15.70;64.70;;;;;;4917016;29;20016;-68
2022/09/03 07:38:33;;;;;;;2.13;1.00;;;15.80;64.50;;;;;;4903576;29;20024;-68
2022/09/03 07:41:00;;;;;;;2.97;1.05;;;16.00;64.40;;;;;;4897111;29;20116;-62
2022/09/03 07:43:32;;;;;;;1.98;0.90;;;16.10;63.00;;;;;;4907507;29;20092;-63
2022/09/03 07:45:58;;;;;;;2.03;1.05;;;16.20;63.00;;;;;;4905141;29;20036;-63
2022/09/03 07:48:24;;;;;;;3.03;1.10;;;16.30;63.10;;;;;;4899418;29;20025;-63
2022/09/03 07:50:50;;;;;;;1.88;1.10;;;16.40;63.10;;;;;;4895045;29;20036;-63
2022/09/03 07:53:15;;;;;;;3.00;1.00;;;16.60;63.30;;;;;;4897679;29;20092;-62
2022/09/03 07:55:43;;;;;;;1.70;0.90;;;16.70;62.20;;;;;;4900687;29;20385;-63
2022/09/03 07:58:10;;;;;;;2.85;0.95;;;17.00;62.70;;;;;;4902417;29;20024;-66
2022/09/03 08:00:35;;;;;;;1.90;1.00;;;17.20;60.10;;;;;;4893647;29;20402;-67
2022/09/03 08:03:05;;;;;;;5.40;1.10;;;17.40;58.90;;;;;;4897934;29;20108;-65
2022/09/03 08:05:31;;;;;;;1.10;0.80;;;17.60;59.00;;;;;;4897572;29;20025;-66
2022/09/03 08:07:59;;;;;;;1.70;0.80;;;17.70;58.70;;;;;;4902521;29;20365;-66
2022/09/03 08:10:27;;;;;;;2.30;0.65;;;18.00;58.90;;;;;;4916649;29;20026;-68
2022/09/03 08:12:52;;;;;;;4.60;0.85;;;18.10;57.40;;;;;;4916350;29;20409;-68
2022/09/03 08:15:18;;;;;;;2.33;1.00;;;18.30;56.50;;;;;;4905853;29;20047;-69
2022/09/03 08:17:44;;;;;;;4.70;1.02;;;18.50;57.00;;;;;;4900066;29;20838;-69
2022/09/03 08:20:09;;;;;;;2.70;1.02;;;18.80;56.60;;;;;;4901653;29;20352;-69
2022/09/03 08:22:36;;;;;;;2.75;0.90;;;19.00;55.40;;;;;;4897863;29;20464;-69
2022/09/03 08:25:02;;;;;;;2.35;1.02;;;19.00;55.10;;;;;;4897897;29;20078;-69
2022/09/03 08:27:27;;;;;;;2.35;0.98;;;18.80;54.40;;;;;;4902912;29;20032;-69
2022/09/03 08:29:53;;;;;;;2.03;1.00;;;19.30;54.30;;;;;;4898272;29;20016;-68
2022/09/03 08:32:19;;;;;;;3.95;1.02;;;19.20;53.90;;;;;;4901126;29;20476;-67
2022/09/03 08:34:45;;;;;;;1.92;0.82;;;19.50;53.40;;;;;;4902551;29;20032;-67
2022/09/03 08:37:12;;;;;;;4.00;0.95;;;19.70;53.70;;;;;;4904323;29;20035;-67
2022/09/03 08:39:38;;;;;;;1.45;0.80;;;20.00;53.20;;;;;;4899072;29;20463;-67
2022/09/03 08:42:46;;;;;;;1.58;0.80;;;20.00;51.70;;;;;;4905664;29;20029;-67
2022/09/03 08:45:16;;;;;;;1.23;0.70;;;20.40;51.70;;;;;;4893753;29;20508;-67
2022/09/03 08:47:48;;;;;;;3.33;0.60;;;20.20;50.40;;;;;;4897624;29;20029;-67
2022/09/03 08:50:15;;;;;;;1.77;0.70;;;20.60;52.00;;;;;;4897093;29;20349;-68
2022/09/03 08:52:47;;;;;;;0.98;0.80;;;20.60;50.40;;;;;;4899314;29;20066;-68
2022/09/03 08:55:41;;;;;;;1.40;0.80;;;20.60;48.80;;;;;;4901236;29;20035;-68
2022/09/03 08:58:21;;;;;;;3.78;0.73;;;20.60;48.90;;;;;;4901955;29;22273;-68
2022/09/03 09:00:53;;;;;;;6.60;1.30;;;20.10;49.10;;;;;;4903355;29;20042;-68
2022/09/03 09:03:31;;;;;;;5.47;0.80;;;20.40;49.10;;;;;;4904144;29;20503;-69
2022/09/03 09:06:35;;;;;;;1.83;0.80;;;20.50;47.90;;;;;;4904082;29;20047;-68
2022/09/03 09:09:32;;;;;;;3.95;0.82;;;20.60;49.10;;;;;;4902647;29;20468;-67
2022/09/03 09:12:14;;;;;;;3.55;0.93;;;21.10;47.10;;;;;;4904298;29;20455;-68
2022/09/03 09:15:10;;;;;;;2.35;0.90;;;21.00;46.80;;;;;;4911783;29;20036;-67
2022/09/03 09:18:02;;;;;;;3.97;0.70;;;21.20;47.20;;;;;;4920217;29;20476;-66
2022/09/03 09:20:47;;;;;;;2.50;0.85;;;20.80;46.20;;;;;;4904070;29;20346;-67
2022/09/03 09:23:23;;;;;;;2.17;0.75;;;21.20;47.70;;;;;;4913861;29;20024;-68
2022/09/03 09:25:50;;;;;;;1.40;0.90;;;21.00;47.70;;;;;;4912109;29;20163;-68
2022/09/03 09:28:24;;;;;;;1.92;0.88;;;20.70;48.30;;;;;;4910895;29;20020;-67
2022/09/03 09:30:54;;;;;;;2.08;0.95;;;20.90;47.50;;;;;;4907061;29;20032;-67
2022/09/03 09:33:20;;;;;;;1.90;0.97;;;21.10;46.40;;;;;;4913458;29;20036;-67
2022/09/03 09:35:46;;;;;;;2.88;1.08;;;21.20;46.20;;;;;;4912448;29;20215;-67
2022/09/03 09:38:12;;;;;;;3.70;0.88;;;21.00;47.00;;;;;;4912403;29;20123;-67
2022/09/03 09:40:41;;;;;;;2.05;0.88;;;20.80;45.80;;;;;;4900236;29;20021;-67
2022/09/03 09:43:14;;;;;;;2.92;0.90;;;20.90;47.30;;;;;;4906030;29;20032;-67
2022/09/03 09:45:43;;;;;;;1.40;0.90;;;21.40;46.70;;;;;;4901063;29;20031;-67
2022/09/03 09:48:29;;;;;;;2.90;0.93;;;21.60;45.90;;;;;;4905129;29;20027;-67
2022/09/03 09:51:12;;;;;;;2.65;1.25;;;22.00;43.70;;;;;;4910065;29;20115;-67
2022/09/03 09:53:39;;;;;;;4.45;0.80;;;22.60;44.70;;;;;;4911122;29;20028;-67
2022/09/03 09:56:05;;;;;;;2.10;0.70;;;22.50;42.60;;;;;;4900039;29;20066;-67
2022/09/03 09:58:33;;;;;;;5.65;1.10;;;22.80;43.80;;;;;;4905660;29;20044;-68
2022/09/03 10:01:14;;;;;;;1.58;0.70;;;22.90;42.70;;;;;;4912592;29;20100;-67
2022/09/03 10:03:48;;;;;;;3.03;0.75;;;22.70;42.20;;;;;;4909579;29;20111;-68
2022/09/03 10:09:10;;;;;;;1.65;0.65;;;23.10;41.90;;;;;;4909407;29;20126;-68
2022/09/03 10:11:39;;;;;;;4.25;0.98;;;23.10;42.40;;;;;;4905038;29;20090;-66
2022/09/03 10:14:11;;;;;;;1.48;0.57;;;23.20;41.20;;;;;;4909681;29;20032;-67
2022/09/03 10:16:40;;;;;;;1.13;0.70;;;23.50;42.00;;;;;;4911984;29;20028;-67
2022/09/03 10:19:09;;;;;;;1.95;0.77;;;23.80;40.70;;;;;;4909064;29;20029;-67
2022/09/03 10:21:53;;;;;;;2.30;0.60;;;23.70;41.60;;;;;;4908515;29;20429;-67
2022/09/03 10:24:38;;;;;;;4.35;0.93;;;22.80;40.70;;;;;;4908123;29;20035;-67
2022/09/03 10:27:06;;;;;;;2.00;0.60;;;22.10;42.70;;;;;;4906450;29;20024;-67
2022/09/03 10:29:32;;;;;;;1.25;0.68;;;21.60;42.00;;;;;;4905945;29;20401;-67
2022/09/03 10:32:12;;;;;;;1.65;0.88;;;21.50;41.10;;;;;;4906430;29;20051;-68
2022/09/03 10:34:56;;;;;;;1.45;0.68;;;21.50;40.60;;;;;;4909590;29;20067;-68
2022/09/03 10:37:39;;;;;;;4.47;1.27;;;21.20;41.40;;;;;;4910188;29;20024;-67
2022/09/03 10:40:45;;;;;;;1.73;0.68;;;21.40;42.00;;;;;;4908845;29;20103;-67
2022/09/03 10:43:43;;;;;;;1.00;0.65;;;22.00;39.90;;;;;;4897806;29;20381;-68
2022/09/03 10:46:19;;;;;;;2.38;0.70;;;22.60;38.30;;;;;;4901241;29;20036;-67
2022/09/03 10:48:49;;;;;;;2.10;0.73;;;22.90;37.80;;;;;;4906093;29;20044;-67
2022/09/03 10:51:34;;;;;;;1.45;0.88;;;23.40;37.70;;;;;;4910566;29;20123;-67
2022/09/03 10:54:09;;;;;;;2.50;0.80;;;23.60;37.20;;;;;;4913616;29;20028;-68
2022/09/03 10:56:53;;;;;;;0.52;0.40;;;23.40;36.90;;;;;;4907712;29;20313;-67
2022/09/03 10:59:55;;;;;;;0.85;0.50;;;22.50;37.30;;;;;;4917650;29;20044;-67
2022/09/03 11:02:48;;;;;;;1.40;0.80;;;23.00;37.70;;;;;;4890523;29;20028;-68
2022/09/03 11:05:22;;;;;;;1.08;0.80;;;22.90;38.60;;;;;;4903315;29;20036;-68
2022/09/03 11:07:57;;;;;;;1.70;0.60;;;23.10;38.80;;;;;;4909196;29;20434;-68
2022/09/03 11:10:40;;;;;;;5.15;1.00;;;23.30;38.40;;;;;;4900694;29;20379;-68
2022/09/03 11:13:13;;;;;;;3.97;0.90;;;23.90;37.90;;;;;;4911484;29;20358;-68
2022/09/03 11:16:00;;;;;;;4.93;0.95;;;24.00;37.60;;;;;;4908452;29;20087;-67
2022/09/03 11:18:34;;;;;;;3.40;0.80;;;23.20;37.70;;;;;;4895884;29;20445;-68
2022/09/03 11:21:04;;;;;;;4.68;0.95;;;23.10;38.00;;;;;;4897521;29;20063;-68
2022/09/03 11:23:35;;;;;;;1.35;0.70;;;23.40;36.60;;;;;;4898644;29;20040;-68
2022/09/03 11:26:06;;;;;;;3.20;0.88;;;23.70;36.40;;;;;;4911671;29;20114;-68
2022/09/03 11:28:54;;;;;;;3.65;2.22;;;24.40;35.40;;;;;;4910010;29;20032;-68
2022/09/03 11:31:56;;;;;;;6.10;2.80;;;24.70;35.90;;;;;;4907237;29;20075;-68
2022/09/03 11:34:25;;;;;;;3.60;2.03;;;24.80;35.30;;;;;;4910545;29;20051;-68
2022/09/03 11:36:51;;;;;;;5.18;3.33;;;25.50;35.30;;;;;;4912796;29;20417;-68
2022/09/03 11:39:33;;;;;;;2.72;1.38;;;25.90;34.00;;;;;;4904053;29;20032;-69
2022/09/03 11:42:07;;;;;;;1.42;0.68;;;26.00;34.30;;;;;;4898973;29;20036;-69
2022/09/03 11:44:42;;;;;;;0.70;0.50;;;25.50;32.80;;;;;;4912576;29;20321;-68
2022/09/03 11:47:36;;;;;;;1.13;0.60;;;25.50;33.00;;;;;;4907588;29;20445;-68
2022/09/03 11:50:31;;;;;;;4.35;0.70;;;25.40;33.40;;;;;;4904106;29;20031;-68
2022/09/03 11:53:13;;;;;;;3.42;0.65;;;26.00;32.90;;;;;;4910997;29;20139;-68
2022/09/03 11:56:17;;;;;;;1.30;0.77;;;25.50;32.80;;;;;;4900164;29;20051;-68
2022/09/03 11:58:44;;;;;;;3.78;0.98;;;25.80;33.00;;;;;;4892740;29;20052;-69
2022/09/03 12:01:16;;;;;;;5.90;3.45;;;25.50;33.40;;;;;;4912683;29;20401;-68
2022/09/03 12:04:04;;;;;;;2.40;1.33;;;25.90;32.40;;;;;;4910417;29;20370;-69
2022/09/03 12:07:01;;;;;;;8.27;4.68;;;26.30;32.20;;;;;;4902977;29;20036;-68
2022/09/03 12:09:58;;;;;;;4.00;1.00;;;24.60;34.60;;;;;;4905543;29;20453;-68
2022/09/03 12:12:35;;;;;;;6.28;4.30;;;24.40;35.30;;;;;;4902742;29;20111;-68
2022/09/03 12:15:27;;;;;;;6.05;2.08;;;24.40;34.90;;;;;;4897975;29;20036;-68
2022/09/03 12:18:18;;;;;;;3.63;1.02;;;24.70;35.00;;;;;;4909436;29;20087;-69
2022/09/03 12:20:45;;;;;;;2.35;0.85;;;25.10;33.30;;;;;;4903842;29;20020;-68
2022/09/03 12:23:16;;;;;;;2.83;0.88;;;26.10;32.10;;;;;;4907343;29;20038;-68
2022/09/03 12:25:46;;;;;;;;;;;27.20;31.40;;;;;;4910777;29;20456;-68
2022/09/03 12:28:19;;;;;;;7.83;3.83;;;27.40;30.00;;;;;;4904934;29;20370;-68
2022/09/03 12:30:45;;;;;;;3.70;1.42;;;27.70;31.50;;;;;;4904736;29;20379;-66
2022/09/03 12:33:15;;;;;;;3.45;1.48;;;28.10;30.10;;;;;;4910012;29;20032;-66
2022/09/03 12:35:41;;;;;;;4.43;1.88;;;28.50;29.30;;;;;;4904485;29;20024;-67
2022/09/03 12:38:06;;;;;;;9.13;3.13;;;28.00;30.30;;;;;;4902274;29;20124;-66
2022/09/03 12:40:32;;;;;;;7.18;4.80;;;27.90;29.70;;;;;;4907509;29;20087;-66
2022/09/03 12:43:15;;;;;;;3.58;2.00;;;28.70;29.90;;;;;;4907180;29;20036;-66
2022/09/03 12:45:46;;;;;;;4.95;2.00;;;26.90;31.60;;;;;;4905772;29;20601;-66
2022/09/03 12:48:17;;;;;;;4.00;2.25;;;26.60;31.90;;;;;;4898411;29;20051;-66
2022/09/03 12:50:43;;;;;;;;;;;27.60;30.90;;;;;;4907995;29;20131;-66
2022/09/03 12:53:13;;;;;;;7.03;3.28;;;27.50;29.90;;;;;;4906344;29;20340;-67
2022/09/03 12:55:55;;;;;;;2.70;1.30;;;25.80;32.60;;;;;;4908925;29;20532;-65
2022/09/03 12:58:26;;;;;;;2.90;1.23;;;26.50;31.30;;;;;;4905401;29;20162;-67
2022/09/03 13:00:59;;;;;;;3.92;1.70;;;25.70;32.40;;;;;;4905835;29;20062;-66
2022/09/03 13:03:41;;;;;;;5.25;2.05;;;25.40;33.00;;;;;;4905240;29;20036;-67
2022/09/03 13:06:10;;;;;;;7.53;3.38;;;25.20;33.20;;;;;;4900539;29;20488;-65
2022/09/03 13:08:48;;;;;;;13.95;7.70;;;24.80;33.40;;;;;;4909007;29;20020;-67
2022/09/03 13:11:17;;;;;;;19.27;11.05;;;24.40;34.60;;;;;;4897681;29;20039;-66
2022/09/03 13:13:54;;;;;;;75.65;50.13;;;25.10;33.30;;;;;;4907609;29;20105;-66
2022/09/03 13:16:19;;;;;;;12.18;6.47;;;26.20;32.70;;;;;;4910681;29;20793;-65
2022/09/03 13:19:00;;;;;;;9.98;5.25;;;27.00;31.10;;;;;;4909210;29;20132;-66
2022/09/03 13:21:26;;;;;;;26.10;21.67;;;27.40;29.50;;;;;;4899992;29;20028;-65